Legend — WDH2751 — position and weather

sailwx.info

Track history (hours):
 
Tides and Currents Weather Stations Pressure Air Temp Water Temp Dewpoint Dewpoint Depression Visibility Wind Speed Wind Dir Waves Ship Positions

Legend

Owner: Sea Adventure 80 Sportfishing, Encinitas, CA. More information available from US FCC via Universal Licensing System and Coast Guard Vessel Documentation Center.

Last reported at 2017-Oct-16 02:14 UTC. Time now 2017-Oct-18 11:15 UTC.
Position N 32°31' W 117°31'.

Type: Passenger vessel. MMSI: 367600830.

Date/timePositionNaut miles runAvg speedWind from/ knotsBaromVisibWave heightAir tempDewpointWater temp
2017-Oct-16 02:14N 32°31' W 117°31'1 6.4
2017-Oct-16 02:01N 32°31' W 117°32'3 6.4
2017-Oct-16 01:31N 32°28' W 117°35'4 8.1
2017-Oct-16 01:01N 32°25' W 117°37'8 7.0
2017-Oct-15 23:51N 32°17' W 117°40'36 5.8
2017-Oct-15 17:44N 31°47' W 117°18'6 3.8
2017-Oct-15 16:10N 31°46' W 117°11'18 0.9
2017-Oct-14 20:22N 31°58' W 117°27'3 7.9
2017-Oct-14 20:00N 32°01' W 117°28'4 7.1
2017-Oct-14 19:29N 32°05' W 117°28'8 4.8
2017-Oct-14 17:48N 32°11' W 117°22'4 5.7
2017-Oct-14 17:05N 32°08' W 117°18'14 1.4
2017-Oct-14 06:50N 32°23' W 117°17'2 7.6
2017-Oct-14 06:30N 32°25' W 117°17'4 7.8
2017-Oct-14 05:59N 32°29' W 117°16'4 7.9
2017-Oct-14 05:30N 32°33' W 117°15'4 8.3
2017-Oct-14 05:00N 32°37' W 117°14'4 8.4
2017-Oct-14 04:30N 32°41' W 117°14'1 1.1
2017-Oct-14 04:00N 32°42' W 117°14'2 3.5
2017-Oct-14 03:29N 32°43' W 117°14'0 0.1
2017-Oct-14 03:00N 32°43' W 117°14'0 0.0
2017-Oct-14 02:31N 32°43' W 117°14'0 0.0
2017-Oct-14 02:01N 32°43' W 117°14'0 0.0
2017-Oct-14 01:30N 32°43' W 117°14'0 0.0
2017-Oct-14 01:00N 32°43' W 117°14'0 0.0
2017-Oct-14 00:30N 32°43' W 117°14'0 0.0
2017-Oct-13 23:59N 32°43' W 117°14'0 0.0
2017-Oct-13 23:30N 32°43' W 117°14'0 0.0
2017-Oct-13 23:00N 32°43' W 117°14'0 0.0
2017-Oct-13 22:30N 32°43' W 117°14'0 0.0
2017-Oct-13 22:00N 32°43' W 117°14'0 0.0
2017-Oct-13 21:30N 32°43' W 117°14'0 0.2
2017-Oct-13 21:00N 32°43' W 117°14'0 0.2
2017-Oct-13 20:30N 32°43' W 117°14'0 0.0
2017-Oct-13 20:00N 32°43' W 117°14'0 0.0
2017-Oct-13 19:30N 32°43' W 117°14'0 0.0
2017-Oct-13 18:57N 32°43' W 117°14'0 0.0
2017-Oct-13 18:30N 32°43' W 117°14'0 0.0
2017-Oct-13 18:00N 32°43' W 117°14'0 0.0
2017-Oct-13 17:30N 32°43' W 117°14'0 0.0
2017-Oct-13 17:00N 32°43' W 117°14'0 0.0
2017-Oct-13 16:30N 32°43' W 117°14'0 0.0
2017-Oct-13 16:00N 32°43' W 117°14'0 0.0
2017-Oct-13 15:30N 32°43' W 117°14'0 0.0
2017-Oct-13 15:00N 32°43' W 117°14'0 0.0
2017-Oct-13 14:30N 32°43' W 117°14'0 0.0
2017-Oct-13 14:00N 32°43' W 117°14'0 0.0
2017-Oct-13 13:30N 32°43' W 117°14'0 0.0
2017-Oct-13 13:00N 32°43' W 117°14'0 0.0
2017-Oct-13 12:30N 32°43' W 117°14'0 0.0
2017-Oct-13 12:01N 32°43' W 117°14'0 0.0
2017-Oct-13 11:30N 32°43' W 117°14'0 0.0
2017-Oct-13 11:00N 32°43' W 117°14'0 0.0
2017-Oct-13 10:30N 32°43' W 117°14'0 0.0
2017-Oct-13 10:00N 32°43' W 117°14'0 0.0
2017-Oct-13 09:30N 32°43' W 117°14'0 0.0
2017-Oct-13 09:01N 32°43' W 117°14'0 0.0
2017-Oct-13 08:30N 32°43' W 117°14'0 0.0
2017-Oct-13 08:00N 32°43' W 117°14'0 0.0
2017-Oct-13 07:30N 32°43' W 117°14'0 0.0
2017-Oct-13 07:00N 32°43' W 117°14'0 0.0
2017-Oct-13 06:30N 32°43' W 117°14'0 0.0
2017-Oct-13 06:00N 32°43' W 117°14'0 0.0
2017-Oct-13 05:30N 32°43' W 117°14'0 0.0
2017-Oct-13 05:00N 32°43' W 117°14'0 0.0
2017-Oct-13 04:30N 32°43' W 117°14'0 0.0
2017-Oct-13 04:01N 32°43' W 117°14'0 0.0
2017-Oct-13 03:30N 32°43' W 117°14'0 0.0
2017-Oct-13 03:00N 32°43' W 117°14'0 0.0
2017-Oct-13 02:31N 32°43' W 117°14'0 0.0
2017-Oct-13 02:00N 32°43' W 117°14'0 0.0
2017-Oct-13 01:30N 32°43' W 117°14'0 0.0
2017-Oct-13 01:00N 32°43' W 117°14'0 0.0
2017-Oct-13 00:30N 32°43' W 117°14'0 0.0
2017-Oct-13 00:00N 32°43' W 117°14'0 0.0
2017-Oct-12 23:30N 32°43' W 117°14'0 0.0
2017-Oct-12 23:00N 32°43' W 117°14'0 0.0
2017-Oct-12 22:31N 32°43' W 117°14'0 0.0
2017-Oct-12 22:00N 32°43' W 117°14'0 0.0
2017-Oct-12 21:30N 32°43' W 117°14'0 0.0
2017-Oct-12 21:00N 32°43' W 117°14'0 0.0
2017-Oct-12 20:30N 32°43' W 117°14'0 0.0
2017-Oct-12 20:00N 32°43' W 117°14'0 0.0
2017-Oct-12 19:30N 32°43' W 117°14'0 0.0
2017-Oct-12 19:00N 32°43' W 117°14'0 0.0
2017-Oct-12 18:30N 32°43' W 117°14'0 0.0
2017-Oct-12 18:00N 32°43' W 117°14'0 0.0
2017-Oct-12 17:30N 32°43' W 117°14'0 0.0
2017-Oct-12 17:00N 32°43' W 117°14'0 0.0
2017-Oct-12 16:30N 32°43' W 117°14'0 0.0
2017-Oct-12 16:00N 32°43' W 117°14'0 0.0
2017-Oct-12 15:30N 32°43' W 117°14'0 0.0
2017-Oct-12 15:00N 32°43' W 117°14'0 0.0
2017-Oct-12 14:30N 32°43' W 117°14'0 0.0
2017-Oct-12 14:00N 32°43' W 117°14'0 0.0
2017-Oct-12 13:30N 32°43' W 117°14'0 0.0
2017-Oct-12 13:00N 32°43' W 117°14'0 0.0
2017-Oct-12 12:30N 32°43' W 117°14'0 0.0
2017-Oct-12 12:01N 32°43' W 117°14'0 0.0
2017-Oct-12 11:30N 32°43' W 117°14'0 0.0
2017-Oct-12 11:00N 32°43' W 117°14'0 0.0
2017-Oct-12 10:30N 32°43' W 117°14'0 0.0
2017-Oct-12 10:01N 32°43' W 117°14'0 0.0
2017-Oct-12 09:30N 32°43' W 117°14'0 0.0
2017-Oct-12 09:00N 32°43' W 117°14'0 0.0
2017-Oct-12 08:31N 32°43' W 117°14'0 0.0
2017-Oct-12 08:00N 32°43' W 117°14'0 0.0
2017-Oct-12 07:30N 32°43' W 117°14'0 0.0
2017-Oct-12 07:01N 32°43' W 117°14'0 0.0
2017-Oct-12 06:30N 32°43' W 117°14'0 0.0
2017-Oct-12 06:00N 32°43' W 117°14'0 0.0
2017-Oct-12 05:31N 32°43' W 117°14'0 0.0
2017-Oct-12 05:00N 32°43' W 117°14'0 0.0
2017-Oct-12 04:30N 32°43' W 117°14'0 0.0
2017-Oct-12 04:00N 32°43' W 117°14'0 0.0
2017-Oct-12 03:30N 32°43' W 117°14'0 0.0
2017-Oct-12 03:00N 32°43' W 117°14'0 0.0
2017-Oct-12 02:30N 32°43' W 117°14'0 0.0
2017-Oct-12 02:00N 32°43' W 117°14'0 0.0
2017-Oct-12 01:30N 32°43' W 117°14'0 0.0
2017-Oct-12 01:00N 32°43' W 117°14'0 0.0
2017-Oct-12 00:30N 32°43' W 117°14'0 0.0
2017-Oct-12 00:00N 32°43' W 117°14'0 0.0
2017-Oct-11 23:30N 32°43' W 117°14'0 0.0
2017-Oct-11 23:00N 32°43' W 117°14'0 0.0
2017-Oct-11 22:30N 32°43' W 117°14'0 0.0
2017-Oct-11 22:00N 32°43' W 117°14'0 0.0
2017-Oct-11 21:30N 32°43' W 117°14'0 0.0
2017-Oct-11 21:00N 32°43' W 117°14'0 0.0
2017-Oct-11 20:30N 32°43' W 117°14'0 0.0
2017-Oct-11 20:00N 32°43' W 117°14'0 0.0
2017-Oct-11 19:30N 32°43' W 117°14'0 0.0
2017-Oct-11 19:00N 32°43' W 117°14'0 0.0
2017-Oct-11 18:30N 32°43' W 117°14'0 0.0
2017-Oct-11 18:00N 32°43' W 117°14'0 0.0
2017-Oct-11 17:30N 32°43' W 117°14'0 0.0
2017-Oct-11 17:00N 32°43' W 117°14'0 0.0
2017-Oct-11 00:01N 32°43' W 117°14'0 0.0
2017-Oct-10 23:30N 32°43' W 117°14'0 0.0
2017-Oct-10 23:00N 32°43' W 117°14'0 0.0
2017-Oct-10 22:30N 32°43' W 117°14'0 0.0
2017-Oct-10 22:00N 32°43' W 117°14'0 0.0
2017-Oct-10 21:30N 32°43' W 117°14'0 0.0
2017-Oct-10 21:01N 32°43' W 117°14'0 0.0
2017-Oct-10 20:31N 32°43' W 117°14'0 0.0
2017-Oct-10 20:01N 32°43' W 117°14'0 0.0
2017-Oct-10 19:31N 32°43' W 117°14'0 0.0
2017-Oct-10 19:01N 32°43' W 117°14'0 0.0
2017-Oct-10 18:31N 32°43' W 117°14'0 0.0
2017-Oct-10 18:01N 32°43' W 117°14'0 0.0
2017-Oct-10 17:30N 32°43' W 117°14'0 0.0
2017-Oct-10 17:01N 32°43' W 117°14'0 0.0
2017-Oct-10 16:31N 32°43' W 117°14'0 0.0
2017-Oct-10 16:00N 32°43' W 117°14'0 0.0
2017-Oct-10 15:31N 32°43' W 117°14'0 0.0
2017-Oct-10 15:00N 32°43' W 117°14'0 0.0
2017-Oct-10 14:01N 32°43' W 117°14'0 0.0
2017-Oct-10 13:30N 32°43' W 117°14'0 0.0
2017-Oct-10 13:00N 32°43' W 117°14'0 0.0
2017-Oct-10 12:30N 32°43' W 117°14'0 0.0
2017-Oct-10 12:00N 32°43' W 117°14'0 0.0
2017-Oct-10 11:31N 32°43' W 117°14'0 0.0
2017-Oct-10 11:01N 32°43' W 117°14'0 0.0
2017-Oct-10 10:31N 32°43' W 117°14'0 0.0
2017-Oct-10 10:00N 32°43' W 117°14'0 0.0
2017-Oct-10 09:31N 32°43' W 117°14'0 0.0
2017-Oct-10 09:00N 32°43' W 117°14'0 0.0
2017-Oct-10 08:30N 32°43' W 117°14'0 0.0
2017-Oct-10 08:00N 32°43' W 117°14'0 0.0
2017-Oct-10 07:31N 32°43' W 117°14'0 0.0
2017-Oct-10 07:00N 32°43' W 117°14'0 0.0
2017-Oct-10 06:30N 32°43' W 117°14'0 0.0
2017-Oct-10 05:59N 32°43' W 117°14'0 0.0
2017-Oct-10 05:30N 32°43' W 117°14'0 0.0
2017-Oct-10 05:00N 32°43' W 117°14'0 0.0
2017-Oct-10 04:30N 32°43' W 117°14'0 0.0
2017-Oct-10 04:00N 32°43' W 117°14'0 0.0
2017-Oct-10 03:30N 32°43' W 117°14'0 0.0
2017-Oct-10 03:00N 32°43' W 117°14'0 0.0
2017-Oct-10 02:29N 32°43' W 117°14'0 0.0
2017-Oct-10 02:00N 32°43' W 117°14'0 0.0
2017-Oct-10 01:31N 32°43' W 117°14'0 0.0
2017-Oct-10 01:00N 32°43' W 117°14'0 0.0
2017-Oct-10 00:30N 32°43' W 117°14'0 0.0
2017-Oct-10 00:00N 32°43' W 117°14'0 0.0
2017-Oct-09 23:30N 32°43' W 117°14'0 0.0
2017-Oct-09 23:00N 32°43' W 117°14'0 0.0
2017-Oct-09 22:31N 32°43' W 117°14'0 0.0
2017-Oct-09 22:00N 32°43' W 117°14'0 0.0
2017-Oct-09 21:30N 32°43' W 117°14'0 0.0
2017-Oct-09 21:00N 32°43' W 117°14'0 0.0
2017-Oct-09 20:30N 32°43' W 117°14'0 0.0
2017-Oct-09 20:00N 32°43' W 117°14'0 0.0
2017-Oct-09 19:31N 32°43' W 117°14'0 0.0
2017-Oct-09 19:00N 32°43' W 117°14'0 0.0
2017-Oct-09 18:30N 32°43' W 117°14'0 0.0
2017-Oct-09 18:00N 32°43' W 117°14'0 0.0
2017-Oct-09 17:30N 32°43' W 117°14'0 0.0
2017-Oct-09 17:00N 32°43' W 117°14'0 0.0
2017-Oct-09 16:30N 32°43' W 117°14'0 0.0
2017-Oct-09 16:00N 32°43' W 117°14'0 0.0
2017-Oct-09 15:30N 32°43' W 117°14'0 0.0
2017-Oct-09 15:00N 32°43' W 117°14'0 0.0
2017-Oct-09 14:30N 32°43' W 117°14'0 0.0
2017-Oct-09 14:00N 32°43' W 117°14'0 0.0
2017-Oct-09 13:30N 32°43' W 117°14'1 2.2
2017-Oct-09 13:00N 32°42' W 117°14'2 4.8
2017-Oct-09 12:30N 32°40' W 117°14'3 6.6
2017-Oct-09 12:00N 32°37' W 117°14'3 6.6
2017-Oct-09 11:30N 32°33' W 117°15'3 6.7
2017-Oct-09 11:00N 32°30' W 117°15'3 6.9
2017-Oct-09 10:30N 32°27' W 117°16'5 7.2
2017-Oct-09 09:46N 32°21' W 117°15'2 7.4
2017-Oct-09 09:26N 32°19' W 117°15'78 3.5
2017-Oct-08 11:19N 31°01' W 117°22'0 0.2
2017-Oct-08 11:00N 31°01' W 117°22'0 0.3
2017-Oct-08 10:26N 31°01' W 117°22'0 0.3
2017-Oct-08 08:51N 31°01' W 117°22'0 0.3
2017-Oct-08 08:30N 31°01' W 117°22'0 0.3
2017-Oct-08 08:01N 31°01' W 117°22'50 2.3
2017-Oct-07 10:22N 31°52' W 117°20'3 8.4
2017-Oct-07 10:00N 31°55' W 117°20'4 8.3
2017-Oct-07 09:30N 31°59' W 117°20'10 8.1
2017-Oct-07 08:14N 32°09' W 117°18'2 8.1
2017-Oct-07 07:59N 32°11' W 117°19'4 8.2
2017-Oct-07 07:30N 32°15' W 117°18'4 8.3
2017-Oct-07 07:00N 32°19' W 117°18'4 8.5
2017-Oct-07 06:30N 32°23' W 117°17'4 8.7
2017-Oct-07 06:00N 32°28' W 117°16'4 8.5
2017-Oct-07 05:30N 32°32' W 117°15'4 8.3
2017-Oct-07 05:01N 32°36' W 117°14'4 8.4
2017-Oct-07 04:31N 32°40' W 117°14'2 3.5
2017-Oct-07 04:00N 32°42' W 117°14'1 2.4
2017-Oct-07 03:30N 32°43' W 117°13'1 1.6
2017-Oct-07 03:01N 32°43' W 117°14'0 0.0
2017-Oct-07 02:31N 32°43' W 117°14'0 0.0
2017-Oct-07 02:00N 32°43' W 117°14'0 0.0
2017-Oct-07 01:30N 32°43' W 117°14'0 0.0
2017-Oct-07 01:00N 32°43' W 117°14'0 0.0
2017-Oct-07 00:30N 32°43' W 117°14'0 0.0
2017-Oct-07 00:00N 32°43' W 117°14'0 0.0
2017-Oct-06 23:30N 32°43' W 117°14'0 0.0
2017-Oct-06 23:00N 32°43' W 117°14'0 0.0
2017-Oct-06 22:30N 32°43' W 117°14'0 0.0
2017-Oct-06 22:00N 32°43' W 117°14'0 0.0
2017-Oct-06 21:30N 32°43' W 117°14'0 0.0
2017-Oct-06 21:00N 32°43' W 117°14'0 0.0
2017-Oct-06 20:30N 32°43' W 117°14'0 0.0
2017-Oct-06 20:00N 32°43' W 117°14'0 0.0
2017-Oct-06 19:30N 32°43' W 117°14'0 0.0
2017-Oct-06 19:00N 32°43' W 117°14'0 0.0
2017-Oct-06 18:30N 32°43' W 117°14'0 0.0
2017-Oct-06 18:00N 32°43' W 117°14'0 0.2
2017-Oct-06 17:29N 32°43' W 117°14'0 0.3
2017-Oct-06 17:00N 32°43' W 117°14'0 0.0
2017-Oct-06 16:30N 32°43' W 117°14'0 0.0
2017-Oct-06 16:00N 32°43' W 117°14'0 0.0
2017-Oct-06 15:30N 32°43' W 117°14'0 0.0
2017-Oct-06 15:00N 32°43' W 117°14'0 0.0
2017-Oct-06 14:29N 32°43' W 117°14'0 0.0
2017-Oct-06 14:00N 32°43' W 117°14'0 0.0
2017-Oct-06 13:30N 32°43' W 117°14'0 0.0
2017-Oct-06 13:00N 32°43' W 117°14'0 0.0
2017-Oct-06 12:30N 32°43' W 117°14'0 0.0
2017-Oct-06 12:00N 32°43' W 117°14'0 0.0
2017-Oct-06 11:30N 32°43' W 117°14'0 0.0
2017-Oct-06 11:00N 32°43' W 117°14'0 0.0
2017-Oct-06 10:30N 32°43' W 117°14'0 0.0
2017-Oct-06 10:00N 32°43' W 117°14'0 0.0
2017-Oct-06 09:30N 32°43' W 117°14'0 0.0
2017-Oct-06 09:00N 32°43' W 117°14'0 0.0
2017-Oct-06 08:30N 32°43' W 117°14'0 0.0
2017-Oct-06 08:00N 32°43' W 117°14'0 0.0
2017-Oct-06 07:30N 32°43' W 117°14'0 0.0
2017-Oct-06 07:00N 32°43' W 117°14'0 0.0
2017-Oct-06 06:30N 32°43' W 117°14'0 0.0
2017-Oct-06 06:00N 32°43' W 117°14'0 0.0
2017-Oct-06 05:30N 32°43' W 117°14'0 0.0
2017-Oct-06 05:00N 32°43' W 117°14'0 0.0
2017-Oct-06 04:30N 32°43' W 117°14'0 0.0
2017-Oct-06 04:00N 32°43' W 117°14'0 0.0
2017-Oct-06 03:30N 32°43' W 117°14'0 0.0
2017-Oct-06 03:00N 32°43' W 117°14'0 0.0
2017-Oct-06 02:30N 32°43' W 117°14'  
Track history (hours):
 
Tides and Currents Weather Stations Pressure Air Temp Water Temp Dewpoint Dewpoint Depression Visibility Wind Speed Wind Dir Waves Ship Positions

Legend

Owner: Sea Adventure 80 Sportfishing, Encinitas, CA. More information available from US FCC via Universal Licensing System and Coast Guard Vessel Documentation Center.

Last reported at 2017-Oct-16 02:14 UTC. Time now 2017-Oct-18 11:15 UTC.
Position N 32°31' W 117°31'.

Type: Passenger vessel. MMSI: 367600830.

Date/timePositionNaut miles runAvg speedWind from/ knotsBaromVisibWave heightAir tempDewpointWater temp
2017-Oct-16 02:14N 32°31' W 117°31'1 6.4
2017-Oct-16 02:01N 32°31' W 117°32'3 6.4
2017-Oct-16 01:31N 32°28' W 117°35'4 8.1
2017-Oct-16 01:01N 32°25' W 117°37'8 7.0
2017-Oct-15 23:51N 32°17' W 117°40'36 5.8
2017-Oct-15 17:44N 31°47' W 117°18'6 3.8
2017-Oct-15 16:10N 31°46' W 117°11'18 0.9
2017-Oct-14 20:22N 31°58' W 117°27'3 7.9
2017-Oct-14 20:00N 32°01' W 117°28'4 7.1
2017-Oct-14 19:29N 32°05' W 117°28'8 4.8
2017-Oct-14 17:48N 32°11' W 117°22'4 5.7
2017-Oct-14 17:05N 32°08' W 117°18'14 1.4
2017-Oct-14 06:50N 32°23' W 117°17'2 7.6
2017-Oct-14 06:30N 32°25' W 117°17'4 7.8
2017-Oct-14 05:59N 32°29' W 117°16'4 7.9
2017-Oct-14 05:30N 32°33' W 117°15'4 8.3
2017-Oct-14 05:00N 32°37' W 117°14'4 8.4
2017-Oct-14 04:30N 32°41' W 117°14'1 1.1
2017-Oct-14 04:00N 32°42' W 117°14'2 3.5
2017-Oct-14 03:29N 32°43' W 117°14'0 0.1
2017-Oct-14 03:00N 32°43' W 117°14'0 0.0
2017-Oct-14 02:31N 32°43' W 117°14'0 0.0
2017-Oct-14 02:01N 32°43' W 117°14'0 0.0
2017-Oct-14 01:30N 32°43' W 117°14'0 0.0
2017-Oct-14 01:00N 32°43' W 117°14'0 0.0
2017-Oct-14 00:30N 32°43' W 117°14'0 0.0
2017-Oct-13 23:59N 32°43' W 117°14'0 0.0
2017-Oct-13 23:30N 32°43' W 117°14'0 0.0
2017-Oct-13 23:00N 32°43' W 117°14'0 0.0
2017-Oct-13 22:30N 32°43' W 117°14'0 0.0
2017-Oct-13 22:00N 32°43' W 117°14'0 0.0
2017-Oct-13 21:30N 32°43' W 117°14'0 0.2
2017-Oct-13 21:00N 32°43' W 117°14'0 0.2
2017-Oct-13 20:30N 32°43' W 117°14'0 0.0
2017-Oct-13 20:00N 32°43' W 117°14'0 0.0
2017-Oct-13 19:30N 32°43' W 117°14'0 0.0
2017-Oct-13 18:57N 32°43' W 117°14'0 0.0
2017-Oct-13 18:30N 32°43' W 117°14'0 0.0
2017-Oct-13 18:00N 32°43' W 117°14'0 0.0
2017-Oct-13 17:30N 32°43' W 117°14'0 0.0
2017-Oct-13 17:00N 32°43' W 117°14'0 0.0
2017-Oct-13 16:30N 32°43' W 117°14'0 0.0
2017-Oct-13 16:00N 32°43' W 117°14'0 0.0
2017-Oct-13 15:30N 32°43' W 117°14'0 0.0
2017-Oct-13 15:00N 32°43' W 117°14'0 0.0
2017-Oct-13 14:30N 32°43' W 117°14'0 0.0
2017-Oct-13 14:00N 32°43' W 117°14'0 0.0
2017-Oct-13 13:30N 32°43' W 117°14'0 0.0
2017-Oct-13 13:00N 32°43' W 117°14'0 0.0
2017-Oct-13 12:30N 32°43' W 117°14'0 0.0
2017-Oct-13 12:01N 32°43' W 117°14'0 0.0
2017-Oct-13 11:30N 32°43' W 117°14'0 0.0
2017-Oct-13 11:00N 32°43' W 117°14'0 0.0
2017-Oct-13 10:30N 32°43' W 117°14'0 0.0
2017-Oct-13 10:00N 32°43' W 117°14'0 0.0
2017-Oct-13 09:30N 32°43' W 117°14'0 0.0
2017-Oct-13 09:01N 32°43' W 117°14'0 0.0
2017-Oct-13 08:30N 32°43' W 117°14'0 0.0
2017-Oct-13 08:00N 32°43' W 117°14'0 0.0
2017-Oct-13 07:30N 32°43' W 117°14'0 0.0
2017-Oct-13 07:00N 32°43' W 117°14'0 0.0
2017-Oct-13 06:30N 32°43' W 117°14'0 0.0
2017-Oct-13 06:00N 32°43' W 117°14'0 0.0
2017-Oct-13 05:30N 32°43' W 117°14'0 0.0
2017-Oct-13 05:00N 32°43' W 117°14'0 0.0
2017-Oct-13 04:30N 32°43' W 117°14'0 0.0
2017-Oct-13 04:01N 32°43' W 117°14'0 0.0
2017-Oct-13 03:30N 32°43' W 117°14'0 0.0
2017-Oct-13 03:00N 32°43' W 117°14'0 0.0
2017-Oct-13 02:31N 32°43' W 117°14'0 0.0
2017-Oct-13 02:00N 32°43' W 117°14'0 0.0
2017-Oct-13 01:30N 32°43' W 117°14'0 0.0
2017-Oct-13 01:00N 32°43' W 117°14'0 0.0
2017-Oct-13 00:30N 32°43' W 117°14'0 0.0
2017-Oct-13 00:00N 32°43' W 117°14'0 0.0
2017-Oct-12 23:30N 32°43' W 117°14'0 0.0
2017-Oct-12 23:00N 32°43' W 117°14'0 0.0
2017-Oct-12 22:31N 32°43' W 117°14'0 0.0
2017-Oct-12 22:00N 32°43' W 117°14'0 0.0
2017-Oct-12 21:30N 32°43' W 117°14'0 0.0
2017-Oct-12 21:00N 32°43' W 117°14'0 0.0
2017-Oct-12 20:30N 32°43' W 117°14'0 0.0
2017-Oct-12 20:00N 32°43' W 117°14'0 0.0
2017-Oct-12 19:30N 32°43' W 117°14'0 0.0
2017-Oct-12 19:00N 32°43' W 117°14'0 0.0
2017-Oct-12 18:30N 32°43' W 117°14'0 0.0
2017-Oct-12 18:00N 32°43' W 117°14'0 0.0
2017-Oct-12 17:30N 32°43' W 117°14'0 0.0
2017-Oct-12 17:00N 32°43' W 117°14'0 0.0
2017-Oct-12 16:30N 32°43' W 117°14'0 0.0
2017-Oct-12 16:00N 32°43' W 117°14'0 0.0
2017-Oct-12 15:30N 32°43' W 117°14'0 0.0
2017-Oct-12 15:00N 32°43' W 117°14'0 0.0
2017-Oct-12 14:30N 32°43' W 117°14'0 0.0
2017-Oct-12 14:00N 32°43' W 117°14'0 0.0
2017-Oct-12 13:30N 32°43' W 117°14'0 0.0
2017-Oct-12 13:00N 32°43' W 117°14'0 0.0
2017-Oct-12 12:30N 32°43' W 117°14'0 0.0
2017-Oct-12 12:01N 32°43' W 117°14'0 0.0
2017-Oct-12 11:30N 32°43' W 117°14'0 0.0
2017-Oct-12 11:00N 32°43' W 117°14'0 0.0
2017-Oct-12 10:30N 32°43' W 117°14'0 0.0
2017-Oct-12 10:01N 32°43' W 117°14'0 0.0
2017-Oct-12 09:30N 32°43' W 117°14'0 0.0
2017-Oct-12 09:00N 32°43' W 117°14'0 0.0
2017-Oct-12 08:31N 32°43' W 117°14'0 0.0
2017-Oct-12 08:00N 32°43' W 117°14'0 0.0
2017-Oct-12 07:30N 32°43' W 117°14'0 0.0
2017-Oct-12 07:01N 32°43' W 117°14'0 0.0
2017-Oct-12 06:30N 32°43' W 117°14'0 0.0
2017-Oct-12 06:00N 32°43' W 117°14'0 0.0
2017-Oct-12 05:31N 32°43' W 117°14'0 0.0
2017-Oct-12 05:00N 32°43' W 117°14'0 0.0
2017-Oct-12 04:30N 32°43' W 117°14'0 0.0
2017-Oct-12 04:00N 32°43' W 117°14'0 0.0
2017-Oct-12 03:30N 32°43' W 117°14'0 0.0
2017-Oct-12 03:00N 32°43' W 117°14'0 0.0
2017-Oct-12 02:30N 32°43' W 117°14'0 0.0
2017-Oct-12 02:00N 32°43' W 117°14'0 0.0
2017-Oct-12 01:30N 32°43' W 117°14'0 0.0
2017-Oct-12 01:00N 32°43' W 117°14'0 0.0
2017-Oct-12 00:30N 32°43' W 117°14'0 0.0
2017-Oct-12 00:00N 32°43' W 117°14'0 0.0
2017-Oct-11 23:30N 32°43' W 117°14'0 0.0
2017-Oct-11 23:00N 32°43' W 117°14'0 0.0
2017-Oct-11 22:30N 32°43' W 117°14'0 0.0
2017-Oct-11 22:00N 32°43' W 117°14'0 0.0
2017-Oct-11 21:30N 32°43' W 117°14'0 0.0
2017-Oct-11 21:00N 32°43' W 117°14'0 0.0
2017-Oct-11 20:30N 32°43' W 117°14'0 0.0
2017-Oct-11 20:00N 32°43' W 117°14'0 0.0
2017-Oct-11 19:30N 32°43' W 117°14'0 0.0
2017-Oct-11 19:00N 32°43' W 117°14'0 0.0
2017-Oct-11 18:30N 32°43' W 117°14'0 0.0
2017-Oct-11 18:00N 32°43' W 117°14'0 0.0
2017-Oct-11 17:30N 32°43' W 117°14'0 0.0
2017-Oct-11 17:00N 32°43' W 117°14'0 0.0
2017-Oct-11 00:01N 32°43' W 117°14'0 0.0
2017-Oct-10 23:30N 32°43' W 117°14'0 0.0
2017-Oct-10 23:00N 32°43' W 117°14'0 0.0
2017-Oct-10 22:30N 32°43' W 117°14'0 0.0
2017-Oct-10 22:00N 32°43' W 117°14'0 0.0
2017-Oct-10 21:30N 32°43' W 117°14'0 0.0
2017-Oct-10 21:01N 32°43' W 117°14'0 0.0
2017-Oct-10 20:31N 32°43' W 117°14'0 0.0
2017-Oct-10 20:01N 32°43' W 117°14'0 0.0
2017-Oct-10 19:31N 32°43' W 117°14'0 0.0
2017-Oct-10 19:01N 32°43' W 117°14'0 0.0
2017-Oct-10 18:31N 32°43' W 117°14'0 0.0
2017-Oct-10 18:01N 32°43' W 117°14'0 0.0
2017-Oct-10 17:30N 32°43' W 117°14'0 0.0
2017-Oct-10 17:01N 32°43' W 117°14'0 0.0
2017-Oct-10 16:31N 32°43' W 117°14'0 0.0
2017-Oct-10 16:00N 32°43' W 117°14'0 0.0
2017-Oct-10 15:31N 32°43' W 117°14'0 0.0
2017-Oct-10 15:00N 32°43' W 117°14'0 0.0
2017-Oct-10 14:01N 32°43' W 117°14'0 0.0
2017-Oct-10 13:30N 32°43' W 117°14'0 0.0
2017-Oct-10 13:00N 32°43' W 117°14'0 0.0
2017-Oct-10 12:30N 32°43' W 117°14'0 0.0
2017-Oct-10 12:00N 32°43' W 117°14'0 0.0
2017-Oct-10 11:31N 32°43' W 117°14'0 0.0
2017-Oct-10 11:01N 32°43' W 117°14'0 0.0
2017-Oct-10 10:31N 32°43' W 117°14'0 0.0
2017-Oct-10 10:00N 32°43' W 117°14'0 0.0
2017-Oct-10 09:31N 32°43' W 117°14'0 0.0
2017-Oct-10 09:00N 32°43' W 117°14'0 0.0
2017-Oct-10 08:30N 32°43' W 117°14'0 0.0
2017-Oct-10 08:00N 32°43' W 117°14'0 0.0
2017-Oct-10 07:31N 32°43' W 117°14'0 0.0
2017-Oct-10 07:00N 32°43' W 117°14'0 0.0
2017-Oct-10 06:30N 32°43' W 117°14'0 0.0
2017-Oct-10 05:59N 32°43' W 117°14'0 0.0
2017-Oct-10 05:30N 32°43' W 117°14'0 0.0
2017-Oct-10 05:00N 32°43' W 117°14'0 0.0
2017-Oct-10 04:30N 32°43' W 117°14'0 0.0
2017-Oct-10 04:00N 32°43' W 117°14'0 0.0
2017-Oct-10 03:30N 32°43' W 117°14'0 0.0
2017-Oct-10 03:00N 32°43' W 117°14'0 0.0
2017-Oct-10 02:29N 32°43' W 117°14'0 0.0
2017-Oct-10 02:00N 32°43' W 117°14'0 0.0
2017-Oct-10 01:31N 32°43' W 117°14'0 0.0
2017-Oct-10 01:00N 32°43' W 117°14'0 0.0
2017-Oct-10 00:30N 32°43' W 117°14'0 0.0
2017-Oct-10 00:00N 32°43' W 117°14'0 0.0
2017-Oct-09 23:30N 32°43' W 117°14'0 0.0
2017-Oct-09 23:00N 32°43' W 117°14'0 0.0
2017-Oct-09 22:31N 32°43' W 117°14'0 0.0
2017-Oct-09 22:00N 32°43' W 117°14'0 0.0
2017-Oct-09 21:30N 32°43' W 117°14'0 0.0
2017-Oct-09 21:00N 32°43' W 117°14'0 0.0
2017-Oct-09 20:30N 32°43' W 117°14'0 0.0
2017-Oct-09 20:00N 32°43' W 117°14'0 0.0
2017-Oct-09 19:31N 32°43' W 117°14'0 0.0
2017-Oct-09 19:00N 32°43' W 117°14'0 0.0
2017-Oct-09 18:30N 32°43' W 117°14'0 0.0
2017-Oct-09 18:00N 32°43' W 117°14'0 0.0
2017-Oct-09 17:30N 32°43' W 117°14'0 0.0
2017-Oct-09 17:00N 32°43' W 117°14'0 0.0
2017-Oct-09 16:30N 32°43' W 117°14'0 0.0
2017-Oct-09 16:00N 32°43' W 117°14'0 0.0
2017-Oct-09 15:30N 32°43' W 117°14'0 0.0
2017-Oct-09 15:00N 32°43' W 117°14'0 0.0
2017-Oct-09 14:30N 32°43' W 117°14'0 0.0
2017-Oct-09 14:00N 32°43' W 117°14'0 0.0
2017-Oct-09 13:30N 32°43' W 117°14'1 2.2
2017-Oct-09 13:00N 32°42' W 117°14'2 4.8
2017-Oct-09 12:30N 32°40' W 117°14'3 6.6
2017-Oct-09 12:00N 32°37' W 117°14'3 6.6
2017-Oct-09 11:30N 32°33' W 117°15'3 6.7
2017-Oct-09 11:00N 32°30' W 117°15'3 6.9
2017-Oct-09 10:30N 32°27' W 117°16'5 7.2
2017-Oct-09 09:46N 32°21' W 117°15'2 7.4
2017-Oct-09 09:26N 32°19' W 117°15'78 3.5
2017-Oct-08 11:19N 31°01' W 117°22'0 0.2
2017-Oct-08 11:00N 31°01' W 117°22'0 0.3
2017-Oct-08 10:26N 31°01' W 117°22'0 0.3
2017-Oct-08 08:51N 31°01' W 117°22'0 0.3
2017-Oct-08 08:30N 31°01' W 117°22'0 0.3
2017-Oct-08 08:01N 31°01' W 117°22'50 2.3
2017-Oct-07 10:22N 31°52' W 117°20'3 8.4
2017-Oct-07 10:00N 31°55' W 117°20'4 8.3
2017-Oct-07 09:30N 31°59' W 117°20'10 8.1
2017-Oct-07 08:14N 32°09' W 117°18'2 8.1
2017-Oct-07 07:59N 32°11' W 117°19'4 8.2
2017-Oct-07 07:30N 32°15' W 117°18'4 8.3
2017-Oct-07 07:00N 32°19' W 117°18'4 8.5
2017-Oct-07 06:30N 32°23' W 117°17'4 8.7
2017-Oct-07 06:00N 32°28' W 117°16'4 8.5
2017-Oct-07 05:30N 32°32' W 117°15'4 8.3
2017-Oct-07 05:01N 32°36' W 117°14'4 8.4
2017-Oct-07 04:31N 32°40' W 117°14'2 3.5
2017-Oct-07 04:00N 32°42' W 117°14'1 2.4
2017-Oct-07 03:30N 32°43' W 117°13'1 1.6
2017-Oct-07 03:01N 32°43' W 117°14'0 0.0
2017-Oct-07 02:31N 32°43' W 117°14'0 0.0
2017-Oct-07 02:00N 32°43' W 117°14'0 0.0
2017-Oct-07 01:30N 32°43' W 117°14'0 0.0
2017-Oct-07 01:00N 32°43' W 117°14'0 0.0
2017-Oct-07 00:30N 32°43' W 117°14'0 0.0
2017-Oct-07 00:00N 32°43' W 117°14'0 0.0
2017-Oct-06 23:30N 32°43' W 117°14'0 0.0
2017-Oct-06 23:00N 32°43' W 117°14'0 0.0
2017-Oct-06 22:30N 32°43' W 117°14'0 0.0
2017-Oct-06 22:00N 32°43' W 117°14'0 0.0
2017-Oct-06 21:30N 32°43' W 117°14'0 0.0
2017-Oct-06 21:00N 32°43' W 117°14'0 0.0
2017-Oct-06 20:30N 32°43' W 117°14'0 0.0
2017-Oct-06 20:00N 32°43' W 117°14'0 0.0
2017-Oct-06 19:30N 32°43' W 117°14'0 0.0
2017-Oct-06 19:00N 32°43' W 117°14'0 0.0
2017-Oct-06 18:30N 32°43' W 117°14'0 0.0
2017-Oct-06 18:00N 32°43' W 117°14'0 0.2
2017-Oct-06 17:29N 32°43' W 117°14'0 0.3
2017-Oct-06 17:00N 32°43' W 117°14'0 0.0
2017-Oct-06 16:30N 32°43' W 117°14'0 0.0
2017-Oct-06 16:00N 32°43' W 117°14'0 0.0
2017-Oct-06 15:30N 32°43' W 117°14'0 0.0
2017-Oct-06 15:00N 32°43' W 117°14'0 0.0
2017-Oct-06 14:29N 32°43' W 117°14'0 0.0
2017-Oct-06 14:00N 32°43' W 117°14'0 0.0
2017-Oct-06 13:30N 32°43' W 117°14'0 0.0
2017-Oct-06 13:00N 32°43' W 117°14'0 0.0
2017-Oct-06 12:30N 32°43' W 117°14'0 0.0
2017-Oct-06 12:00N 32°43' W 117°14'0 0.0
2017-Oct-06 11:30N 32°43' W 117°14'0 0.0
2017-Oct-06 11:00N 32°43' W 117°14'0 0.0
2017-Oct-06 10:30N 32°43' W 117°14'0 0.0
2017-Oct-06 10:00N 32°43' W 117°14'0 0.0
2017-Oct-06 09:30N 32°43' W 117°14'0 0.0
2017-Oct-06 09:00N 32°43' W 117°14'0 0.0
2017-Oct-06 08:30N 32°43' W 117°14'0 0.0
2017-Oct-06 08:00N 32°43' W 117°14'0 0.0
2017-Oct-06 07:30N 32°43' W 117°14'0 0.0
2017-Oct-06 07:00N 32°43' W 117°14'0 0.0
2017-Oct-06 06:30N 32°43' W 117°14'0 0.0
2017-Oct-06 06:00N 32°43' W 117°14'0 0.0
2017-Oct-06 05:30N 32°43' W 117°14'0 0.0
2017-Oct-06 05:00N 32°43' W 117°14'0 0.0
2017-Oct-06 04:30N 32°43' W 117°14'0 0.0
2017-Oct-06 04:00N 32°43' W 117°14'0 0.0
2017-Oct-06 03:30N 32°43' W 117°14'0 0.0
2017-Oct-06 03:00N 32°43' W 117°14'0 0.0
2017-Oct-06 02:30N 32°43' W 117°14'  

Dump ship's entire track history